Time,TemperatureF,DewpointF,PressureIn,WindDirection,WindDirectionDegrees,WindSpeedMPH,WindSpeedGustMPH,Humidity,HourlyPrecipIn,Conditions,Clouds,dailyrainin,SoftwareType,DateUTC
2013-04-15 00:04:00,57.2,45.0,29.83,NE,37,1.0,4.0,64,0.00,,,0.00,weatherlink.com 1.10,2013-04-15 04:04:00,
2013-04-15 00:19:00,57.2,45.0,29.83,ENE,57,0.0,5.0,64,0.00,,,0.00,weatherlink.com 1.10,2013-04-15 04:19:00,
2013-04-15 00:34:00,57.2,45.0,29.83,SSW,211,1.0,3.0,64,0.00,,,0.00,weatherlink.com 1.10,2013-04-15 04:34:00,
2013-04-15 00:50:00,57.3,45.0,29.83,East,97,1.0,3.0,64,0.00,,,0.00,weatherlink.com 1.10,2013-04-15 04:50:00,
2013-04-15 01:04:00,58.1,46.0,29.83,East,98,1.0,5.0,64,0.00,,,0.00,weatherlink.com 1.10,2013-04-15 05:04:00,
2013-04-15 01:19:00,58.0,46.0,29.83,ENE,58,2.0,4.0,64,0.00,,,0.00,weatherlink.com 1.10,2013-04-15 05:19:00,
2013-04-15 01:34:00,57.4,46.0,29.83,ESE,122,1.0,6.0,66,0.00,,,0.00,weatherlink.com 1.10,2013-04-15 05:34:00,
2013-04-15 01:49:00,57.2,46.0,29.83,East,96,1.0,5.0,67,0.00,,,0.00,weatherlink.com 1.10,2013-04-15 05:49:00,
2013-04-15 02:04:00,56.8,46.0,29.83,ESE,118,1.0,6.0,68,0.00,,,0.00,weatherlink.com 1.10,2013-04-15 06:04:00,
2013-04-15 02:19:00,56.7,46.0,29.83,ESE,104,1.0,7.0,68,0.00,,,0.00,weatherlink.com 1.10,2013-04-15 06:19:00,
2013-04-15 02:34:00,56.6,46.0,29.83,ESE,122,4.0,7.0,69,0.00,,,0.00,weatherlink.com 1.10,2013-04-15 06:34:00,
2013-04-15 02:49:00,56.5,46.0,29.83,East,95,3.0,7.0,69,0.00,,,0.00,weatherlink.com 1.10,2013-04-15 06:49:00,
2013-04-15 03:04:00,56.4,46.0,29.83,SE,134,2.0,8.0,69,0.00,,,0.00,weatherlink.com 1.10,2013-04-15 07:04:00,
2013-04-15 04:04:00,55.0,47.0,29.86,SSW,193,4.0,7.0,75,0.00,,,0.00,weatherlink.com 1.10,2013-04-15 08:04:00,
2013-04-15 04:19:00,54.5,47.0,29.86,SSE,166,3.0,5.0,76,0.00,,,0.00,weatherlink.com 1.10,2013-04-15 08:19:00,
2013-04-15 04:34:00,54.0,47.0,29.87,SW,228,2.0,5.0,78,0.00,,,0.00,weatherlink.com 1.10,2013-04-15 08:34:00,
2013-04-15 04:49:00,54.0,47.0,29.88,SSE,150,2.0,7.0,78,0.00,,,0.00,weatherlink.com 1.10,2013-04-15 08:49:00,
2013-04-15 05:04:00,53.7,47.0,29.88,SSE,162,2.0,6.0,79,0.00,,,0.00,weatherlink.com 1.10,2013-04-15 09:04:00,
2013-04-15 05:20:00,53.4,47.0,29.88,SE,134,1.0,4.0,80,0.00,,,0.00,weatherlink.com 1.10,2013-04-15 09:20:00,
2013-04-15 05:35:00,53.1,47.0,29.88,SE,138,1.0,5.0,81,0.00,,,0.00,weatherlink.com 1.10,2013-04-15 09:35:00,
2013-04-15 05:50:00,52.9,48.0,29.88,East,83,2.0,6.0,82,0.00,,,0.00,weatherlink.com 1.10,2013-04-15 09:50:00,
2013-04-15 06:05:00,52.6,48.0,29.87,SSE,149,1.0,4.0,83,0.00,,,0.00,weatherlink.com 1.10,2013-04-15 10:05:00,
2013-04-15 06:20:00,52.6,48.0,29.88,SSE,160,4.0,4.0,83,0.00,,,0.00,weatherlink.com 1.10,2013-04-15 10:20:00,
2013-04-15 06:35:00,52.9,48.0,29.87,SE,124,1.0,5.0,83,0.00,,,0.00,weatherlink.com 1.10,2013-04-15 10:35:00,
2013-04-15 06:50:00,52.8,48.0,29.87,ESE,115,2.0,5.0,84,0.00,,,0.00,weatherlink.com 1.10,2013-04-15 10:50:00,
2013-04-15 07:05:00,52.6,48.0,29.86,SE,131,2.0,3.0,84,0.00,,,0.00,weatherlink.com 1.10,2013-04-15 11:05:00,
2013-04-15 07:20:00,52.5,48.0,29.87,SE,139,1.0,3.0,84,0.00,,,0.00,weatherlink.com 1.10,2013-04-15 11:20:00,
2013-04-15 07:35:00,52.8,48.0,29.87,ESE,114,1.0,4.0,84,0.00,,,0.00,weatherlink.com 1.10,2013-04-15 11:35:00,
2013-04-15 07:50:00,53.5,49.0,29.88,ENE,73,1.0,4.0,83,0.00,,,0.00,weatherlink.com 1.10,2013-04-15 11:50:00,
2013-04-15 08:05:00,56.0,50.0,29.89,East,94,2.0,7.0,79,0.00,,,0.00,weatherlink.com 1.10,2013-04-15 12:05:00,
2013-04-15 08:20:00,58.2,51.0,29.90,ENE,75,2.0,6.0,76,0.00,,,0.00,weatherlink.com 1.10,2013-04-15 12:20:00,
2013-04-15 08:50:00,59.8,52.0,29.91,SE,124,2.0,10.0,74,0.00,,,0.00,weatherlink.com 1.10,2013-04-15 12:50:00,
2013-04-15 09:05:00,59.8,52.0,29.90,East,89,2.0,8.0,74,0.00,,,0.00,weatherlink.com 1.10,2013-04-15 13:05:00,
2013-04-15 09:20:00,60.2,52.0,29.91,SE,128,1.0,5.0,73,0.00,,,0.00,weatherlink.com 1.10,2013-04-15 13:20:00,
2013-04-15 09:35:00,59.7,52.0,29.91,East,84,5.0,8.0,75,0.00,,,0.00,weatherlink.com 1.10,2013-04-15 13:35:00,
2013-04-15 09:50:00,59.4,52.0,29.90,ENE,75,2.0,6.0,76,0.00,,,0.00,weatherlink.com 1.10,2013-04-15 13:50:00,
2013-04-15 10:05:00,59.5,52.0,29.91,SE,131,4.0,8.0,76,0.00,,,0.00,weatherlink.com 1.10,2013-04-15 14:05:00,
2013-04-15 10:20:00,59.6,52.0,29.91,East,98,1.0,8.0,76,0.00,,,0.00,weatherlink.com 1.10,2013-04-15 14:20:00,
2013-04-15 10:35:00,59.7,52.0,29.91,WSW,243,6.0,10.0,76,0.00,,,0.00,weatherlink.com 1.10,2013-04-15 14:35:00,
2013-04-15 10:50:00,60.4,53.0,29.91,ESE,105,6.0,8.0,76,0.00,,,0.00,weatherlink.com 1.10,2013-04-15 14:50:00,
2013-04-15 11:05:00,62.0,54.0,29.91,NNE,27,2.0,10.0,75,0.00,,,0.00,weatherlink.com 1.10,2013-04-15 15:05:00,
2013-04-15 11:20:00,62.6,54.0,29.91,ESE,104,2.0,9.0,73,0.00,,,0.00,weatherlink.com 1.10,2013-04-15 15:20:00,
2013-04-15 11:35:00,64.3,56.0,29.91,ESE,105,1.0,7.0,74,0.00,,,0.00,weatherlink.com 1.10,2013-04-15 15:35:00,
2013-04-15 11:50:00,66.0,56.0,29.91,East,87,3.0,8.0,70,0.00,,,0.00,weatherlink.com 1.10,2013-04-15 15:50:00,
2013-04-15 12:05:00,67.6,57.0,29.92,SSW,200,2.0,9.0,70,0.00,,,0.00,weatherlink.com 1.10,2013-04-15 16:05:00,
2013-04-15 12:20:00,66.4,56.0,29.92,ESE,108,3.0,13.0,69,0.00,,,0.00,weatherlink.com 1.10,2013-04-15 16:20:00,
2013-04-15 12:35:00,68.1,57.0,29.92,NW,315,1.0,9.0,68,0.00,,,0.00,weatherlink.com 1.10,2013-04-15 16:35:00,
2013-04-15 12:50:00,67.0,56.0,29.92,South,187,5.0,12.0,67,0.00,,,0.00,weatherlink.com 1.10,2013-04-15 16:50:00,
2013-04-15 13:05:00,65.4,56.0,29.92,ESE,113,2.0,11.0,71,0.00,,,0.00,weatherlink.com 1.10,2013-04-15 17:05:00,
2013-04-15 13:35:00,63.9,55.0,29.92,SE,126,2.0,8.0,72,0.00,,,0.00,weatherlink.com 1.10,2013-04-15 17:35:00,
2013-04-15 13:52:00,63.6,55.0,29.90,ESE,114,2.0,9.0,73,0.00,,,0.00,weatherlink.com 1.10,2013-04-15 17:52:00,
2013-04-15 14:05:00,66.7,58.0,29.90,ESE,123,1.0,8.0,73,0.00,,,0.00,weatherlink.com 1.10,2013-04-15 18:05:00,
2013-04-15 14:20:00,65.8,55.0,29.91,SE,139,6.0,11.0,69,0.00,,,0.00,weatherlink.com 1.10,2013-04-15 18:20:00,
2013-04-15 14:35:00,65.0,56.0,29.90,SW,221,3.0,8.0,72,0.00,,,0.00,weatherlink.com 1.10,2013-04-15 18:35:00,
2013-04-15 14:50:00,65.1,55.0,29.89,SE,132,1.0,6.0,71,0.00,,,0.00,weatherlink.com 1.10,2013-04-15 18:50:00,
2013-04-15 15:05:00,64.9,56.0,29.89,East,91,0.0,9.0,72,0.00,,,0.00,weatherlink.com 1.10,2013-04-15 19:05:00,
2013-04-15 15:20:00,66.0,56.0,29.88,East,94,2.0,7.0,71,0.00,,,0.00,weatherlink.com 1.10,2013-04-15 19:20:00,
2013-04-15 15:36:00,66.8,56.0,29.88,SSW,208,2.0,8.0,69,0.00,,,0.00,weatherlink.com 1.10,2013-04-15 19:36:00,
2013-04-15 16:05:00,68.5,57.0,29.87,SE,129,3.0,9.0,68,0.00,,,0.00,weatherlink.com 1.10,2013-04-15 20:05:00,
2013-04-15 16:21:00,68.9,57.0,29.89,South,172,3.0,8.0,65,0.00,,,0.00,weatherlink.com 1.10,2013-04-15 20:21:00,
2013-04-15 16:36:00,66.6,57.0,29.91,SSE,160,2.0,9.0,70,0.00,,,0.00,weatherlink.com 1.10,2013-04-15 20:36:00,
2013-04-15 16:51:00,66.6,56.0,29.90,SSE,163,5.0,11.0,69,0.00,,,0.00,weatherlink.com 1.10,2013-04-15 20:51:00,
2013-04-15 17:06:00,66.0,56.0,29.86,East,91,2.0,8.0,70,0.00,,,0.00,weatherlink.com 1.10,2013-04-15 21:06:00,
2013-04-15 17:21:00,67.1,58.0,29.86,SSE,167,0.0,5.0,73,0.00,,,0.00,weatherlink.com 1.10,2013-04-15 21:21:00,
2013-04-15 17:36:00,67.6,57.0,29.88,WNW,291,2.0,10.0,68,0.00,,,0.00,weatherlink.com 1.10,2013-04-15 21:36:00,
2013-04-15 17:51:00,66.7,56.0,29.83,East,86,5.0,6.0,69,0.00,,,0.00,weatherlink.com 1.10,2013-04-15 21:51:00,
2013-04-15 18:06:00,68.4,58.0,29.84,SW,216,0.0,5.0,69,0.00,,,0.00,weatherlink.com 1.10,2013-04-15 22:06:00,
2013-04-15 18:21:00,67.9,57.0,29.87,SE,146,2.0,10.0,69,0.00,,,0.00,weatherlink.com 1.10,2013-04-15 22:21:00,
2013-04-15 18:37:00,68.5,58.0,29.83,ESE,103,7.0,7.0,70,0.00,,,0.00,weatherlink.com 1.10,2013-04-15 22:37:00,
2013-04-15 18:51:00,67.8,57.0,29.84,East,81,1.0,8.0,69,0.00,,,0.00,weatherlink.com 1.10,2013-04-15 22:51:00,
2013-04-15 19:21:00,67.7,56.0,29.85,East,98,3.0,9.0,67,0.00,,,0.00,weatherlink.com 1.10,2013-04-15 23:21:00,
2013-04-15 20:06:00,65.8,56.0,29.84,SE,127,2.0,7.0,70,0.00,,,0.00,weatherlink.com 1.10,2013-04-16 00:06:00,
2013-04-15 20:21:00,65.4,55.0,29.85,SSE,151,3.0,5.0,70,0.00,,,0.00,weatherlink.com 1.10,2013-04-16 00:21:00,
2013-04-15 20:36:00,65.5,55.0,29.86,SE,124,1.0,6.0,70,0.00,,,0.00,weatherlink.com 1.10,2013-04-16 00:36:00,
2013-04-15 20:51:00,65.4,55.0,29.87,SE,131,1.0,5.0,70,0.00,,,0.00,weatherlink.com 1.10,2013-04-16 00:51:00,
2013-04-15 21:06:00,65.0,55.0,29.87,East,98,2.0,5.0,71,0.00,,,0.00,weatherlink.com 1.10,2013-04-16 01:06:00,
2013-04-15 21:21:00,64.8,55.0,29.88,SE,143,1.0,5.0,71,0.00,,,0.00,weatherlink.com 1.10,2013-04-16 01:21:00,
2013-04-15 21:36:00,64.8,55.0,29.88,ESE,116,2.0,7.0,71,0.00,,,0.00,weatherlink.com 1.10,2013-04-16 01:36:00,
2013-04-15 21:51:00,64.3,55.0,29.89,SE,128,1.0,6.0,72,0.00,,,0.00,weatherlink.com 1.10,2013-04-16 01:51:00,
2013-04-15 22:06:00,63.9,55.0,29.88,ENE,71,4.0,5.0,74,0.00,,,0.00,weatherlink.com 1.10,2013-04-16 02:06:00,
2013-04-15 22:36:00,63.1,55.0,29.89,East,91,2.0,8.0,75,0.00,,,0.00,weatherlink.com 1.10,2013-04-16 02:36:00,
2013-04-15 22:51:00,62.3,55.0,29.89,SW,224,4.0,6.0,76,0.00,,,0.00,weatherlink.com 1.10,2013-04-16 02:51:00,
2013-04-15 23:06:00,61.9,55.0,29.90,NE,49,1.0,9.0,77,0.00,,,0.00,weatherlink.com 1.10,2013-04-16 03:06:00,
2013-04-15 23:21:00,62.0,55.0,29.91,ESE,113,2.0,8.0,77,0.00,,,0.00,weatherlink.com 1.10,2013-04-16 03:21:00,
2013-04-15 23:36:00,62.1,55.0,29.90,SE,139,1.0,5.0,77,0.00,,,0.00,weatherlink.com 1.10,2013-04-16 03:36:00,